Time,TemperatureF,DewpointF,PressureIn,WindDirection,WindDirectionDegrees,WindSpeedMPH,WindSpeedGustMPH,Humidity,HourlyPrecipIn,Conditions,Clouds,dailyrainin,SoftwareType,DateUTC
2013-05-31 00:01:00,61.7,51.8,30.33,SSE,158,6.0,8.0,70,0.00,,,0.00,meteohub,2013-05-31 04:01:00,
2013-05-31 00:06:00,61.9,52.3,30.33,SSE,158,4.0,8.0,71,0.00,,,0.00,meteohub,2013-05-31 04:06:00,
2013-05-31 00:11:00,62.1,52.5,30.33,SSE,158,4.0,8.0,71,0.00,,,0.00,meteohub,2013-05-31 04:11:00,
2013-05-31 00:16:00,62.2,52.3,30.33,ESE,112,6.0,10.0,70,0.00,,,0.00,meteohub,2013-05-31 04:16:00,
2013-05-31 00:21:00,62.2,52.3,30.33,SSE,158,6.0,10.0,70,0.00,,,0.00,meteohub,2013-05-31 04:21:00,
2013-05-31 00:26:00,62.2,52.0,30.33,SE,135,6.0,8.0,69,0.00,,,0.00,meteohub,2013-05-31 04:26:00,
2013-05-31 00:31:00,62.4,52.2,30.33,SSE,158,5.0,10.0,69,0.00,,,0.00,meteohub,2013-05-31 04:31:00,
2013-05-31 00:36:00,62.2,52.0,30.33,SE,135,5.0,10.0,69,0.00,,,0.00,meteohub,2013-05-31 04:36:00,
2013-05-31 00:41:00,62.2,51.6,30.33,SSE,158,5.0,10.0,68,0.00,,,0.00,meteohub,2013-05-31 04:41:00,
2013-05-31 00:46:00,62.1,51.4,30.33,ESE,112,6.0,10.0,68,0.00,,,0.00,meteohub,2013-05-31 04:46:00,
2013-05-31 00:52:00,61.9,51.3,30.33,SSE,158,5.0,9.0,68,0.00,,,0.00,meteohub,2013-05-31 04:52:00,
2013-05-31 00:57:00,61.9,51.6,30.33,SSE,158,8.0,9.0,69,0.00,,,0.00,meteohub,2013-05-31 04:57:00,
2013-05-31 01:02:00,61.9,51.6,30.33,SSE,158,6.0,8.0,69,0.00,,,0.00,meteohub,2013-05-31 05:02:00,
2013-05-31 01:07:00,61.9,51.6,30.33,ESE,112,4.0,8.0,69,0.00,,,0.00,meteohub,2013-05-31 05:07:00,
2013-05-31 01:12:00,61.9,51.6,30.33,SSE,158,6.0,8.0,69,0.00,,,0.00,meteohub,2013-05-31 05:12:00,
2013-05-31 01:17:00,62.1,51.8,30.33,SSE,158,6.0,10.0,69,0.00,,,0.00,meteohub,2013-05-31 05:17:00,
2013-05-31 01:22:00,61.9,51.6,30.33,ESE,112,5.0,10.0,69,0.00,,,0.00,meteohub,2013-05-31 05:22:00,
2013-05-31 01:27:00,61.9,51.6,30.33,SSE,158,7.0,10.0,69,0.00,,,0.00,meteohub,2013-05-31 05:27:00,
2013-05-31 01:32:00,62.1,51.8,30.33,ESE,112,6.0,9.0,69,0.00,,,0.00,meteohub,2013-05-31 05:32:00,
2013-05-31 01:37:00,62.1,51.8,30.33,ESE,112,5.0,9.0,69,0.00,,,0.00,meteohub,2013-05-31 05:37:00,
2013-05-31 01:42:00,62.4,52.2,30.33,East,90,4.0,9.0,69,0.00,,,0.00,meteohub,2013-05-31 05:42:00,
2013-05-31 01:47:00,62.4,52.2,30.33,SSE,158,6.0,10.0,69,0.00,,,0.00,meteohub,2013-05-31 05:47:00,
2013-05-31 01:52:00,62.4,51.8,30.33,SE,135,6.0,10.0,68,0.00,,,0.00,meteohub,2013-05-31 05:52:00,
2013-05-31 01:57:00,62.4,52.2,30.33,ESE,112,6.0,10.0,69,0.00,,,0.00,meteohub,2013-05-31 05:57:00,
2013-05-31 02:02:00,62.6,52.0,30.32,ESE,112,4.0,10.0,68,0.00,,,0.00,meteohub,2013-05-31 06:02:00,
2013-05-31 02:07:00,62.6,52.0,30.32,SE,135,7.0,10.0,68,0.00,,,0.00,meteohub,2013-05-31 06:07:00,
2013-05-31 02:12:00,62.6,52.0,30.32,ESE,112,7.0,11.0,68,0.00,,,0.00,meteohub,2013-05-31 06:12:00,
2013-05-31 02:17:00,62.6,52.0,30.32,SSE,158,5.0,11.0,68,0.00,,,0.00,meteohub,2013-05-31 06:17:00,
2013-05-31 02:22:00,62.4,52.2,30.33,SE,135,6.0,8.0,69,0.00,,,0.00,meteohub,2013-05-31 06:22:00,
2013-05-31 02:27:00,62.4,52.2,30.33,SSE,158,7.0,9.0,69,0.00,,,0.00,meteohub,2013-05-31 06:27:00,
2013-05-31 02:32:00,62.6,52.3,30.32,SSE,158,6.0,10.0,69,0.00,,,0.00,meteohub,2013-05-31 06:32:00,
2013-05-31 02:37:00,62.6,52.3,30.32,SE,135,6.0,10.0,69,0.00,,,0.00,meteohub,2013-05-31 06:37:00,
2013-05-31 02:42:00,62.6,52.3,30.32,ESE,112,4.0,10.0,69,0.00,,,0.00,meteohub,2013-05-31 06:42:00,
2013-05-31 02:47:00,62.8,52.5,30.32,SE,135,8.0,10.0,69,0.00,,,0.00,meteohub,2013-05-31 06:47:00,
2013-05-31 02:52:00,63.0,52.2,30.32,SSE,158,6.0,8.0,68,0.00,,,0.00,meteohub,2013-05-31 06:52:00,
2013-05-31 02:57:00,63.0,52.2,30.32,SSE,158,6.0,9.0,68,0.00,,,0.00,meteohub,2013-05-31 06:57:00,
2013-05-31 03:02:00,63.0,52.2,30.32,SE,135,6.0,10.0,68,0.00,,,0.00,meteohub,2013-05-31 07:02:00,
2013-05-31 03:07:00,63.0,52.2,30.32,SE,135,8.0,10.0,68,0.00,,,0.00,meteohub,2013-05-31 07:07:00,
2013-05-31 03:12:00,63.0,52.2,30.29,SSE,158,7.0,10.0,68,0.00,,,0.00,meteohub,2013-05-31 07:12:00,
2013-05-31 03:17:00,63.1,52.3,30.29,SSE,158,8.0,10.0,68,0.00,,,0.00,meteohub,2013-05-31 07:17:00,
2013-05-31 03:22:00,63.0,52.2,30.29,SSE,158,4.0,10.0,68,0.00,,,0.00,meteohub,2013-05-31 07:22:00,
2013-05-31 03:27:00,63.0,52.7,30.29,SSE,158,6.0,10.0,69,0.00,,,0.00,meteohub,2013-05-31 07:27:00,
2013-05-31 03:32:00,63.0,52.7,30.29,SSE,158,7.0,10.0,69,0.00,,,0.00,meteohub,2013-05-31 07:32:00,
2013-05-31 03:37:00,62.8,52.5,30.29,ESE,112,5.0,10.0,69,0.00,,,0.00,meteohub,2013-05-31 07:37:00,
2013-05-31 03:42:00,62.6,52.3,30.29,ESE,112,6.0,10.0,69,0.00,,,0.00,meteohub,2013-05-31 07:42:00,
2013-05-31 03:47:00,62.6,52.3,30.29,SSE,158,5.0,9.0,69,0.00,,,0.00,meteohub,2013-05-31 07:47:00,
2013-05-31 03:52:00,62.4,52.5,30.29,SE,135,5.0,9.0,70,0.00,,,0.00,meteohub,2013-05-31 07:52:00,
2013-05-31 03:57:00,62.2,52.3,30.30,SE,135,4.0,8.0,70,0.00,,,0.00,meteohub,2013-05-31 07:57:00,
2013-05-31 04:02:00,61.9,52.0,30.30,SSE,158,4.0,8.0,70,0.00,,,0.00,meteohub,2013-05-31 08:02:00,
2013-05-31 04:07:00,61.7,51.8,30.30,South,180,5.0,7.0,70,0.00,,,0.00,meteohub,2013-05-31 08:07:00,
2013-05-31 04:12:00,61.5,52.0,30.30,SSE,158,4.0,7.0,71,0.00,,,0.00,meteohub,2013-05-31 08:12:00,
2013-05-31 04:17:00,61.3,51.8,30.30,SSE,158,4.0,6.0,71,0.00,,,0.00,meteohub,2013-05-31 08:17:00,
2013-05-31 04:22:00,61.2,52.2,30.30,SSE,158,4.0,6.0,72,0.00,,,0.00,meteohub,2013-05-31 08:22:00,
2013-05-31 04:27:00,60.8,51.8,30.31,SSE,158,6.0,6.0,72,0.00,,,0.00,meteohub,2013-05-31 08:27:00,
2013-05-31 04:32:00,60.6,52.0,30.31,SSE,158,3.0,6.0,73,0.00,,,0.00,meteohub,2013-05-31 08:32:00,
2013-05-31 04:37:00,60.6,52.3,30.31,SE,135,6.0,6.0,74,0.00,,,0.00,meteohub,2013-05-31 08:37:00,
2013-05-31 04:42:00,60.4,52.2,30.31,SSE,158,4.0,6.0,74,0.00,,,0.00,meteohub,2013-05-31 08:42:00,
2013-05-31 04:47:00,60.4,52.5,30.31,SSE,158,5.0,6.0,75,0.00,,,0.00,meteohub,2013-05-31 08:47:00,
2013-05-31 04:52:00,60.3,52.7,30.31,SSE,158,4.0,7.0,76,0.00,,,0.00,meteohub,2013-05-31 08:52:00,
2013-05-31 04:57:00,60.1,52.5,30.31,SSE,158,3.0,7.0,76,0.00,,,0.00,meteohub,2013-05-31 08:57:00,
2013-05-31 05:02:00,59.9,52.3,30.31,SSE,158,5.0,7.0,76,0.00,,,0.00,meteohub,2013-05-31 09:02:00,
2013-05-31 05:07:00,59.7,52.5,30.31,SSE,158,4.0,6.0,77,0.00,,,0.00,meteohub,2013-05-31 09:07:00,
2013-05-31 05:12:00,59.7,52.9,30.31,SSE,158,5.0,6.0,78,0.00,,,0.00,meteohub,2013-05-31 09:12:00,
2013-05-31 05:17:00,59.5,52.7,30.32,South,180,4.0,6.0,78,0.00,,,0.00,meteohub,2013-05-31 09:17:00,
2013-05-31 05:22:00,59.5,52.7,30.32,SE,135,4.0,6.0,78,0.00,,,0.00,meteohub,2013-05-31 09:22:00,
2013-05-31 05:27:00,59.5,53.1,30.32,SSE,158,3.0,5.0,79,0.00,,,0.00,meteohub,2013-05-31 09:27:00,
2013-05-31 05:32:00,59.4,52.9,30.32,South,180,2.0,5.0,79,0.00,,,0.00,meteohub,2013-05-31 09:32:00,
2013-05-31 05:37:00,59.2,52.3,30.32,SSW,202,1.0,5.0,78,0.00,,,0.00,meteohub,2013-05-31 09:37:00,
2013-05-31 05:42:00,58.8,52.3,30.32,South,180,0.0,4.0,79,0.00,,,0.00,meteohub,2013-05-31 09:42:00,
2013-05-31 05:47:00,58.5,52.0,30.32,South,180,0.0,3.0,79,0.00,,,0.00,meteohub,2013-05-31 09:47:00,
2013-05-31 05:52:00,58.3,52.2,30.32,SSE,158,0.0,3.0,80,0.00,,,0.00,meteohub,2013-05-31 09:52:00,
2013-05-31 05:57:00,58.1,52.0,30.33,South,180,2.0,3.0,80,0.00,,,0.00,meteohub,2013-05-31 09:57:00,
2013-05-31 06:02:00,57.9,52.2,30.33,SSE,158,2.0,3.0,81,0.00,,,0.00,meteohub,2013-05-31 10:02:00,
2013-05-31 06:07:00,58.1,52.3,30.33,North,-999,-999.0,2.0,81,0.00,,,0.00,meteohub,2013-05-31 10:07:00,
2013-05-31 06:12:00,58.3,52.9,30.32,North,-999,-999.0,2.0,82,0.00,,,0.00,meteohub,2013-05-31 10:12:00,
2013-05-31 06:17:00,58.6,53.4,30.32,North,-999,-999.0,-999.0,83,0.00,,,0.00,meteohub,2013-05-31 10:17:00,
2013-05-31 06:22:00,59.0,54.1,30.32,North,-999,-999.0,-999.0,84,0.00,,,0.00,meteohub,2013-05-31 10:22:00,
2013-05-31 06:27:00,59.2,54.3,30.32,North,-999,-999.0,-999.0,84,0.00,,,0.00,meteohub,2013-05-31 10:27:00,
2013-05-31 06:32:00,59.4,54.5,30.32,North,-999,-999.0,-999.0,84,0.00,,,0.00,meteohub,2013-05-31 10:32:00,
2013-05-31 06:37:00,59.4,54.1,30.32,North,-999,-999.0,-999.0,83,0.00,,,0.00,meteohub,2013-05-31 10:37:00,
2013-05-31 06:42:00,59.4,54.1,30.32,North,-999,-999.0,-999.0,83,0.00,,,0.00,meteohub,2013-05-31 10:42:00,
2013-05-31 06:47:00,59.2,54.0,30.32,SSE,158,3.0,4.0,83,0.00,,,0.00,meteohub,2013-05-31 10:47:00,
2013-05-31 06:52:00,59.0,53.6,30.32,South,180,2.0,4.0,82,0.00,,,0.00,meteohub,2013-05-31 10:52:00,
2013-05-31 06:57:00,59.2,54.0,30.32,SSE,158,4.0,4.0,83,0.00,,,0.00,meteohub,2013-05-31 10:57:00,
2013-05-31 07:01:00,59.4,54.1,30.32,South,180,3.0,4.0,83,0.00,,,0.00,meteohub,2013-05-31 11:01:00,
2013-05-31 07:07:00,59.5,54.3,30.32,SSE,158,4.0,5.0,83,0.00,,,0.00,meteohub,2013-05-31 11:07:00,
2013-05-31 07:12:00,59.7,54.5,30.31,SSE,158,5.0,6.0,83,0.00,,,0.00,meteohub,2013-05-31 11:12:00,
2013-05-31 07:17:00,59.9,54.7,30.31,SSE,158,5.0,6.0,83,0.00,,,0.00,meteohub,2013-05-31 11:17:00,
2013-05-31 07:22:00,60.1,54.9,30.31,SE,135,4.0,6.0,83,0.00,,,0.00,meteohub,2013-05-31 11:22:00,
2013-05-31 07:27:00,60.3,55.0,30.31,SSE,158,4.0,6.0,83,0.00,,,0.00,meteohub,2013-05-31 11:27:00,
2013-05-31 07:32:00,60.4,55.2,30.31,SE,135,6.0,6.0,83,0.00,,,0.00,meteohub,2013-05-31 11:32:00,
2013-05-31 07:37:00,60.4,54.9,30.31,SE,135,4.0,6.0,82,0.00,,,0.00,meteohub,2013-05-31 11:37:00,
2013-05-31 07:42:00,60.4,54.9,30.34,SSE,158,4.0,6.0,82,0.00,,,0.00,meteohub,2013-05-31 11:42:00,
2013-05-31 07:47:00,60.6,55.0,30.34,SSE,158,4.0,7.0,82,0.00,,,0.00,meteohub,2013-05-31 11:47:00,
2013-05-31 07:52:00,60.8,54.9,30.34,SSE,158,6.0,7.0,81,0.00,,,0.00,meteohub,2013-05-31 11:52:00,
2013-05-31 07:57:00,61.2,55.6,30.34,SSE,158,6.0,9.0,82,0.00,,,0.00,meteohub,2013-05-31 11:57:00,
2013-05-31 08:02:00,61.2,55.2,30.34,SE,135,6.0,9.0,81,0.00,,,0.00,meteohub,2013-05-31 12:02:00,
2013-05-31 08:07:00,61.3,55.4,30.34,SSE,158,6.0,9.0,81,0.00,,,0.00,meteohub,2013-05-31 12:07:00,
2013-05-31 08:11:00,61.5,55.2,30.30,SSE,158,9.0,10.0,80,0.00,,,0.00,meteohub,2013-05-31 12:11:00,
2013-05-31 08:17:00,61.7,55.4,30.30,SE,135,8.0,10.0,80,0.00,,,0.00,meteohub,2013-05-31 12:17:00,
2013-05-31 08:22:00,61.9,55.2,30.30,SSE,158,10.0,10.0,79,0.00,,,0.00,meteohub,2013-05-31 12:22:00,
2013-05-31 08:27:00,61.9,55.2,30.30,SSE,158,11.0,11.0,79,0.00,,,0.00,meteohub,2013-05-31 12:27:00,
2013-05-31 08:32:00,62.1,55.4,30.30,SSE,158,11.0,11.0,79,0.00,,,0.00,meteohub,2013-05-31 12:32:00,
2013-05-31 08:37:00,62.1,55.0,30.30,SSE,158,9.0,11.0,78,0.00,,,0.00,meteohub,2013-05-31 12:37:00,
2013-05-31 08:42:00,62.2,55.6,30.30,North,-999,-999.0,11.0,79,0.00,,,0.00,meteohub,2013-05-31 12:42:00,
2013-05-31 08:47:00,62.6,56.3,30.29,SSE,158,8.0,11.0,80,0.00,,,0.00,meteohub,2013-05-31 12:47:00,
2013-05-31 08:52:00,63.3,57.4,30.29,SSE,158,7.0,11.0,81,0.00,,,0.00,meteohub,2013-05-31 12:52:00,
2013-05-31 08:57:00,64.6,57.9,30.31,North,-999,-999.0,11.0,79,0.00,,,0.00,meteohub,2013-05-31 12:57:00,
2013-05-31 09:02:00,65.5,57.7,30.30,North,-999,-999.0,7.0,76,0.00,,,0.00,meteohub,2013-05-31 13:02:00,
2013-05-31 09:07:00,66.0,57.2,30.30,SE,135,8.0,8.0,73,0.00,,,0.00,meteohub,2013-05-31 13:07:00,
2013-05-31 09:12:00,66.4,56.7,30.30,SSE,158,9.0,9.0,71,0.00,,,0.00,meteohub,2013-05-31 13:12:00,
2013-05-31 09:17:00,66.9,56.8,30.29,North,-999,-999.0,9.0,70,0.00,,,0.00,meteohub,2013-05-31 13:17:00,
2013-05-31 09:22:00,67.5,57.0,30.29,North,-999,-999.0,9.0,69,0.00,,,0.00,meteohub,2013-05-31 13:22:00,
2013-05-31 09:27:00,68.2,57.2,30.28,North,-999,-999.0,-999.0,68,0.00,,,0.00,meteohub,2013-05-31 13:27:00,
2013-05-31 09:32:00,68.5,56.7,30.28,SSE,158,9.0,9.0,66,0.00,,,0.00,meteohub,2013-05-31 13:32:00,
2013-05-31 09:37:00,68.9,56.7,30.28,North,-999,-999.0,9.0,65,0.00,,,0.00,meteohub,2013-05-31 13:37:00,
2013-05-31 09:42:00,69.3,56.1,30.27,North,-999,-999.0,9.0,63,0.00,,,0.00,meteohub,2013-05-31 13:42:00,
2013-05-31 09:47:00,69.4,56.3,30.27,North,-999,-999.0,-999.0,63,0.00,,,0.00,meteohub,2013-05-31 13:47:00,
2013-05-31 09:52:00,69.8,56.7,30.27,North,-999,-999.0,-999.0,63,0.00,,,0.00,meteohub,2013-05-31 13:52:00,
2013-05-31 09:57:00,69.4,55.9,30.27,North,-999,-999.0,-999.0,62,0.00,,,0.00,meteohub,2013-05-31 13:57:00,
2013-05-31 10:02:00,68.4,55.2,30.28,North,-999,-999.0,-999.0,63,0.00,,,0.00,meteohub,2013-05-31 14:02:00,
2013-05-31 10:07:00,67.8,55.6,30.29,SSE,158,9.0,9.0,65,0.00,,,0.00,meteohub,2013-05-31 14:07:00,
2013-05-31 10:12:00,68.5,57.2,30.28,ESE,112,7.0,9.0,67,0.00,,,0.00,meteohub,2013-05-31 14:12:00,
2013-05-31 10:17:00,69.1,57.7,30.28,North,-999,-999.0,9.0,67,0.00,,,0.00,meteohub,2013-05-31 14:17:00,
2013-05-31 10:22:00,70.0,57.2,30.27,North,-999,-999.0,7.0,64,0.00,,,0.00,meteohub,2013-05-31 14:22:00,
2013-05-31 10:27:00,69.4,57.2,30.27,North,-999,-999.0,-999.0,65,0.00,,,0.00,meteohub,2013-05-31 14:27:00,
2013-05-31 10:32:00,68.9,56.7,30.28,SE,135,4.0,-999.0,65,0.00,,,0.00,meteohub,2013-05-31 14:32:00,
2013-05-31 10:37:00,68.2,56.5,30.28,ESE,112,9.0,9.0,66,0.00,,,0.00,meteohub,2013-05-31 14:37:00,
2013-05-31 10:42:00,68.4,57.4,30.28,SSE,158,7.0,9.0,68,0.00,,,0.00,meteohub,2013-05-31 14:42:00,
2013-05-31 10:47:00,69.4,58.1,30.27,SE,135,8.0,11.0,67,0.00,,,0.00,meteohub,2013-05-31 14:47:00,
2013-05-31 10:52:00,69.8,57.9,30.27,SSE,158,11.0,11.0,66,0.00,,,0.00,meteohub,2013-05-31 14:52:00,
2013-05-31 10:57:00,70.7,58.8,30.26,North,-999,-999.0,11.0,66,0.00,,,0.00,meteohub,2013-05-31 14:57:00,
2013-05-31 11:02:00,70.5,57.7,30.27,SSE,158,6.0,11.0,64,0.00,,,0.00,meteohub,2013-05-31 15:02:00,
2013-05-31 11:07:00,70.7,57.9,30.26,SSE,158,11.0,11.0,64,0.00,,,0.00,meteohub,2013-05-31 15:07:00,
2013-05-31 11:12:00,70.7,57.6,30.26,SSE,158,11.0,13.0,63,0.00,,,0.00,meteohub,2013-05-31 15:12:00,
2013-05-31 11:17:00,70.7,57.6,30.26,SSE,158,9.0,13.0,63,0.00,,,0.00,meteohub,2013-05-31 15:17:00,
2013-05-31 11:22:00,70.5,56.8,30.27,SE,135,11.0,13.0,62,0.00,,,0.00,meteohub,2013-05-31 15:22:00,
2013-05-31 11:27:00,70.3,57.2,30.27,SSE,158,10.0,13.0,63,0.00,,,0.00,meteohub,2013-05-31 15:27:00,
2013-05-31 11:32:00,72.3,58.6,30.25,SE,135,11.0,13.0,62,0.00,,,0.00,meteohub,2013-05-31 15:32:00,
2013-05-31 11:37:00,73.6,57.9,30.24,SSE,158,8.0,11.0,58,0.00,,,0.00,meteohub,2013-05-31 15:37:00,
2013-05-31 11:42:00,73.8,56.7,30.24,SSE,158,9.0,11.0,55,0.00,,,0.00,meteohub,2013-05-31 15:42:00,
2013-05-31 11:47:00,74.1,56.5,30.24,SSE,158,10.0,11.0,54,0.00,,,0.00,meteohub,2013-05-31 15:47:00,
2013-05-31 11:52:00,75.2,54.7,30.23,SSE,158,12.0,12.0,49,0.00,,,0.00,meteohub,2013-05-31 15:52:00,
2013-05-31 11:57:00,75.0,54.0,30.23,SE,135,13.0,13.0,48,0.00,,,0.00,meteohub,2013-05-31 15:57:00,
2013-05-31 12:02:00,73.0,52.2,30.25,SSE,158,10.0,14.0,48,0.00,,,0.00,meteohub,2013-05-31 16:02:00,
2013-05-31 12:07:00,71.6,52.0,30.26,SSE,158,7.0,16.0,50,0.00,,,0.00,meteohub,2013-05-31 16:07:00,
2013-05-31 12:12:00,72.9,53.6,30.25,SSE,158,10.0,16.0,51,0.00,,,0.00,meteohub,2013-05-31 16:12:00,
2013-05-31 12:17:00,72.1,52.5,30.25,SSE,158,8.0,13.0,50,0.00,,,0.00,meteohub,2013-05-31 16:17:00,
2013-05-31 12:22:00,72.3,53.2,30.25,SE,135,13.0,15.0,51,0.00,,,0.00,meteohub,2013-05-31 16:22:00,
2013-05-31 12:27:00,73.8,54.0,30.24,SE,135,12.0,15.0,50,0.00,,,0.00,meteohub,2013-05-31 16:27:00,
2013-05-31 12:32:00,75.2,55.2,30.23,SSE,158,9.0,15.0,50,0.00,,,0.00,meteohub,2013-05-31 16:32:00,
2013-05-31 12:37:00,76.1,54.5,30.22,SSE,158,10.0,13.0,47,0.00,,,0.00,meteohub,2013-05-31 16:37:00,
2013-05-31 12:42:00,74.3,51.6,30.24,SSW,202,13.0,13.0,45,0.00,,,0.00,meteohub,2013-05-31 16:42:00,
2013-05-31 12:47:00,72.9,50.4,30.25,South,180,8.0,15.0,45,0.00,,,0.00,meteohub,2013-05-31 16:47:00,
2013-05-31 12:51:00,73.9,52.5,30.24,SE,135,10.0,15.0,47,0.00,,,0.00,meteohub,2013-05-31 16:51:00,
2013-05-31 12:56:00,73.0,51.6,30.25,SSE,158,9.0,13.0,47,0.00,,,0.00,meteohub,2013-05-31 16:56:00,
2013-05-31 13:01:00,72.3,51.6,30.25,SSE,158,9.0,13.0,48,0.00,,,0.00,meteohub,2013-05-31 17:01:00,
2013-05-31 13:07:00,73.4,51.4,30.25,ESE,112,10.0,13.0,46,0.00,,,0.00,meteohub,2013-05-31 17:07:00,
2013-05-31 13:12:00,72.3,49.8,30.25,SSE,158,8.0,13.0,45,0.00,,,0.00,meteohub,2013-05-31 17:12:00,
2013-05-31 13:17:00,72.1,50.9,30.25,SSE,158,11.0,13.0,47,0.00,,,0.00,meteohub,2013-05-31 17:17:00,
2013-05-31 13:22:00,73.6,51.6,30.24,SSE,158,7.0,13.0,46,0.00,,,0.00,meteohub,2013-05-31 17:22:00,
2013-05-31 13:27:00,73.2,51.3,30.25,SSE,158,11.0,13.0,46,0.00,,,0.00,meteohub,2013-05-31 17:27:00,
2013-05-31 13:32:00,73.2,51.3,30.25,SSE,158,11.0,14.0,46,0.00,,,0.00,meteohub,2013-05-31 17:32:00,
2013-05-31 13:37:00,72.3,50.4,30.25,SSE,158,13.0,14.0,46,0.00,,,0.00,meteohub,2013-05-31 17:37:00,
2013-05-31 13:42:00,72.1,51.4,30.25,North,-999,-999.0,13.0,48,0.00,,,0.00,meteohub,2013-05-31 17:42:00,
2013-05-31 13:47:00,73.8,52.3,30.24,SSE,158,11.0,13.0,47,0.00,,,0.00,meteohub,2013-05-31 17:47:00,
2013-05-31 13:52:00,74.3,52.2,30.24,ESE,112,14.0,14.0,46,0.00,,,0.00,meteohub,2013-05-31 17:52:00,
2013-05-31 13:57:00,76.1,52.7,30.22,North,-999,-999.0,14.0,44,0.00,,,0.00,meteohub,2013-05-31 17:57:00,
2013-05-31 14:02:00,74.3,50.4,30.24,North,-999,-999.0,14.0,43,0.00,,,0.00,meteohub,2013-05-31 18:02:00,
2013-05-31 14:07:00,75.4,50.7,30.23,SSE,158,8.0,-999.0,42,0.00,,,0.00,meteohub,2013-05-31 18:07:00,
2013-05-31 14:12:00,73.9,49.5,30.21,North,-999,-999.0,9.0,42,0.00,,,0.00,meteohub,2013-05-31 18:12:00,
2013-05-31 14:17:00,73.9,50.0,30.21,North,-999,-999.0,9.0,43,0.00,,,0.00,meteohub,2013-05-31 18:17:00,
2013-05-31 14:22:00,74.7,51.3,30.20,North,-999,-999.0,-999.0,44,0.00,,,0.00,meteohub,2013-05-31 18:22:00,
2013-05-31 14:27:00,75.6,50.2,30.19,North,-999,-999.0,-999.0,41,0.00,,,0.00,meteohub,2013-05-31 18:27:00,
2013-05-31 14:32:00,74.1,48.9,30.20,SSE,158,9.0,-999.0,41,0.00,,,0.00,meteohub,2013-05-31 18:32:00,
2013-05-31 14:37:00,75.0,50.4,30.20,SE,135,10.0,10.0,42,0.00,,,0.00,meteohub,2013-05-31 18:37:00,
2013-05-31 14:42:00,76.8,52.0,30.19,North,-999,-999.0,10.0,42,0.00,,,0.00,meteohub,2013-05-31 18:42:00,
2013-05-31 14:47:00,76.6,50.5,30.19,ESE,112,9.0,10.0,40,0.00,,,0.00,meteohub,2013-05-31 18:47:00,
2013-05-31 14:52:00,75.9,49.3,30.19,ENE,68,8.0,10.0,39,0.00,,,0.00,meteohub,2013-05-31 18:52:00,
2013-05-31 14:57:00,76.1,50.7,30.19,SSE,158,10.0,10.0,41,0.00,,,0.00,meteohub,2013-05-31 18:57:00,
2013-05-31 15:02:00,79.0,52.7,30.17,SSE,158,6.0,13.0,40,0.00,,,0.00,meteohub,2013-05-31 19:02:00,
2013-05-31 15:07:00,78.3,49.8,30.17,ESE,112,9.0,13.0,37,0.00,,,0.00,meteohub,2013-05-31 19:07:00,
2013-05-31 15:12:00,78.3,49.1,30.17,SSE,158,11.0,13.0,36,0.00,,,0.00,meteohub,2013-05-31 19:12:00,
2013-05-31 15:17:00,78.4,49.3,30.17,SSE,158,4.0,11.0,36,0.00,,,0.00,meteohub,2013-05-31 19:17:00,
2013-05-31 15:22:00,78.8,48.9,30.17,SSE,158,9.0,15.0,35,0.00,,,0.00,meteohub,2013-05-31 19:22:00,
2013-05-31 15:27:00,79.5,48.7,30.17,SSE,158,11.0,15.0,34,0.00,,,0.00,meteohub,2013-05-31 19:27:00,
2013-05-31 15:32:00,76.8,46.4,30.19,SSE,158,10.0,15.0,34,0.00,,,0.00,meteohub,2013-05-31 19:32:00,
2013-05-31 15:37:00,74.8,45.3,30.20,SSE,158,13.0,13.0,35,0.00,,,0.00,meteohub,2013-05-31 19:37:00,
2013-05-31 15:42:00,75.2,45.7,30.16,North,-999,-999.0,13.0,35,0.00,,,0.00,meteohub,2013-05-31 19:42:00,
2013-05-31 15:47:00,75.7,46.2,30.16,SE,135,10.0,13.0,35,0.00,,,0.00,meteohub,2013-05-31 19:47:00,
2013-05-31 15:52:00,77.4,49.1,30.15,SE,135,8.0,10.0,37,0.00,,,0.00,meteohub,2013-05-31 19:52:00,
2013-05-31 15:57:00,77.5,48.6,30.15,ESE,112,11.0,11.0,36,0.00,,,0.00,meteohub,2013-05-31 19:57:00,
2013-05-31 16:02:00,77.9,48.0,30.14,SSE,158,13.0,17.0,35,0.00,,,0.00,meteohub,2013-05-31 20:02:00,
2013-05-31 16:07:00,77.9,48.0,30.14,SSE,158,8.0,17.0,35,0.00,,,0.00,meteohub,2013-05-31 20:07:00,
2013-05-31 16:12:00,79.2,48.4,30.14,SSE,158,8.0,17.0,34,0.00,,,0.00,meteohub,2013-05-31 20:12:00,
2013-05-31 16:17:00,78.6,47.8,30.14,SSE,158,10.0,17.0,34,0.00,,,0.00,meteohub,2013-05-31 20:17:00,
2013-05-31 16:22:00,78.8,48.0,30.14,SSE,158,10.0,16.0,34,0.00,,,0.00,meteohub,2013-05-31 20:22:00,
2013-05-31 16:27:00,78.1,46.6,30.14,ESE,112,17.0,17.0,33,0.00,,,0.00,meteohub,2013-05-31 20:27:00,
2013-05-31 16:32:00,75.6,46.0,30.16,SSE,158,11.0,17.0,35,0.00,,,0.00,meteohub,2013-05-31 20:32:00,
2013-05-31 16:37:00,74.3,46.4,30.17,SE,135,8.0,17.0,37,0.00,,,0.00,meteohub,2013-05-31 20:37:00,
2013-05-31 16:42:00,73.8,45.9,30.17,South,180,10.0,17.0,37,0.00,,,0.00,meteohub,2013-05-31 20:42:00,
2013-05-31 16:47:00,73.8,47.3,30.17,SSE,158,12.0,17.0,39,0.00,,,0.00,meteohub,2013-05-31 20:47:00,
2013-05-31 16:52:00,73.4,47.7,30.18,SE,135,11.0,17.0,40,0.00,,,0.00,meteohub,2013-05-31 20:52:00,
2013-05-31 16:57:00,73.0,48.0,30.18,SSE,158,9.0,13.0,41,0.00,,,0.00,meteohub,2013-05-31 20:57:00,
2013-05-31 17:02:00,73.2,48.2,30.18,ESE,112,8.0,13.0,41,0.00,,,0.00,meteohub,2013-05-31 21:02:00,
2013-05-31 17:07:00,72.5,48.2,30.18,SSE,158,10.0,13.0,42,0.00,,,0.00,meteohub,2013-05-31 21:07:00,
2013-05-31 17:12:00,72.1,47.8,30.19,SSE,158,8.0,13.0,42,0.00,,,0.00,meteohub,2013-05-31 21:12:00,
2013-05-31 17:17:00,72.0,48.2,30.19,SSE,158,6.0,13.0,43,0.00,,,0.00,meteohub,2013-05-31 21:17:00,
2013-05-31 17:22:00,71.6,48.0,30.19,SSE,158,6.0,13.0,43,0.00,,,0.00,meteohub,2013-05-31 21:22:00,
2013-05-31 17:27:00,71.4,47.1,30.19,ESE,112,10.0,12.0,42,0.00,,,0.00,meteohub,2013-05-31 21:27:00,
2013-05-31 17:32:00,71.1,47.5,30.19,SSE,158,6.0,13.0,43,0.00,,,0.00,meteohub,2013-05-31 21:32:00,
2013-05-31 17:37:00,70.9,47.8,30.19,SSE,158,6.0,13.0,44,0.00,,,0.00,meteohub,2013-05-31 21:37:00,
2013-05-31 17:42:00,71.1,48.7,30.19,SSW,202,5.0,13.0,45,0.00,,,0.00,meteohub,2013-05-31 21:42:00,
2013-05-31 17:47:00,70.9,48.6,30.19,ESE,112,9.0,13.0,45,0.00,,,0.00,meteohub,2013-05-31 21:47:00,
2013-05-31 17:52:00,70.5,48.7,30.20,ESE,112,9.0,13.0,46,0.00,,,0.00,meteohub,2013-05-31 21:52:00,
2013-05-31 17:57:00,70.0,48.2,30.20,SSE,158,7.0,13.0,46,0.00,,,0.00,meteohub,2013-05-31 21:57:00,
2013-05-31 18:02:00,69.3,48.2,30.21,ESE,112,10.0,13.0,47,0.00,,,0.00,meteohub,2013-05-31 22:02:00,
2013-05-31 18:07:00,68.9,48.4,30.21,SSE,158,8.0,13.0,48,0.00,,,0.00,meteohub,2013-05-31 22:07:00,
2013-05-31 18:12:00,68.7,48.7,30.21,SSE,158,6.0,13.0,49,0.00,,,0.00,meteohub,2013-05-31 22:12:00,
2013-05-31 18:17:00,68.5,49.1,30.21,SSE,158,11.0,11.0,50,0.00,,,0.00,meteohub,2013-05-31 22:17:00,
2013-05-31 18:22:00,68.4,49.1,30.22,SSE,158,6.0,11.0,50,0.00,,,0.00,meteohub,2013-05-31 22:22:00,
2013-05-31 18:27:00,68.2,49.5,30.22,SSE,158,4.0,11.0,51,0.00,,,0.00,meteohub,2013-05-31 22:27:00,
2013-05-31 18:32:00,68.5,50.2,30.21,ESE,112,6.0,11.0,52,0.00,,,0.00,meteohub,2013-05-31 22:32:00,
2013-05-31 18:37:00,68.9,50.5,30.21,SSE,158,9.0,10.0,52,0.00,,,0.00,meteohub,2013-05-31 22:37:00,
2013-05-31 18:42:00,69.1,50.7,30.21,SE,135,9.0,10.0,52,0.00,,,0.00,meteohub,2013-05-31 22:42:00,
2013-05-31 18:47:00,69.1,50.7,30.21,SSE,158,8.0,11.0,52,0.00,,,0.00,meteohub,2013-05-31 22:47:00,
2013-05-31 18:52:00,69.1,50.7,30.21,SSE,158,10.0,11.0,52,0.00,,,0.00,meteohub,2013-05-31 22:52:00,
2013-05-31 18:57:00,68.9,50.5,30.21,East,90,11.0,11.0,52,0.00,,,0.00,meteohub,2013-05-31 22:57:00,
2013-05-31 19:02:00,68.7,50.9,30.21,SSE,158,9.0,11.0,53,0.00,,,0.00,meteohub,2013-05-31 23:02:00,
2013-05-31 19:07:00,68.4,51.1,30.22,SSE,158,6.0,11.0,54,0.00,,,0.00,meteohub,2013-05-31 23:07:00,
2013-05-31 19:12:00,68.2,51.4,30.22,SE,135,6.0,11.0,55,0.00,,,0.00,meteohub,2013-05-31 23:12:00,
2013-05-31 19:17:00,68.0,51.3,30.22,ESE,112,7.0,10.0,55,0.00,,,0.00,meteohub,2013-05-31 23:17:00,
2013-05-31 19:22:00,67.8,51.6,30.22,SSE,158,7.0,10.0,56,0.00,,,0.00,meteohub,2013-05-31 23:22:00,
2013-05-31 19:27:00,67.8,52.0,30.22,SSE,158,6.0,9.0,57,0.00,,,0.00,meteohub,2013-05-31 23:27:00,
2013-05-31 19:32:00,67.8,52.0,30.22,South,180,10.0,10.0,57,0.00,,,0.00,meteohub,2013-05-31 23:32:00,
2013-05-31 19:37:00,67.6,51.8,30.22,SSE,158,7.0,10.0,57,0.00,,,0.00,meteohub,2013-05-31 23:37:00,
2013-05-31 19:42:00,67.3,51.6,30.22,SSE,158,6.0,10.0,57,0.00,,,0.00,meteohub,2013-05-31 23:42:00,
2013-05-31 19:48:00,67.1,51.8,30.22,SE,135,12.0,13.0,58,0.00,,,0.00,meteohub,2013-05-31 23:48:00,
2013-05-31 19:53:00,66.9,51.6,30.22,SSE,158,6.0,13.0,58,0.00,,,0.00,meteohub,2013-05-31 23:53:00,
2013-05-31 19:58:00,66.6,51.8,30.23,SSE,158,6.0,13.0,59,0.00,,,0.00,meteohub,2013-05-31 23:58:00,
2013-05-31 20:03:00,66.4,52.2,30.23,SSE,158,7.0,12.0,60,0.00,,,0.00,meteohub,2013-06-01 00:03:00,
2013-05-31 20:08:00,66.4,52.2,30.23,SSE,158,6.0,9.0,60,0.00,,,0.00,meteohub,2013-06-01 00:08:00,
2013-05-31 20:13:00,66.2,52.0,30.23,SSE,158,5.0,9.0,60,0.00,,,0.00,meteohub,2013-06-01 00:13:00,
2013-05-31 20:18:00,66.0,52.7,30.23,SSE,158,4.0,9.0,62,0.00,,,0.00,meteohub,2013-06-01 00:18:00,
2013-05-31 20:23:00,65.8,52.0,30.23,SSE,158,3.0,8.0,61,0.00,,,0.00,meteohub,2013-06-01 00:23:00,
2013-05-31 20:28:00,65.7,52.3,30.24,SSE,158,5.0,8.0,62,0.00,,,0.00,meteohub,2013-06-01 00:28:00,
2013-05-31 20:33:00,65.7,52.7,30.24,SE,135,8.0,8.0,63,0.00,,,0.00,meteohub,2013-06-01 00:33:00,
2013-05-31 20:38:00,65.5,53.1,30.24,SE,135,6.0,8.0,64,0.00,,,0.00,meteohub,2013-06-01 00:38:00,
2013-05-31 20:43:00,65.1,52.7,30.24,SSE,158,4.0,9.0,64,0.00,,,0.00,meteohub,2013-06-01 00:43:00,
2013-05-31 20:48:00,64.9,52.9,30.24,SSE,158,5.0,9.0,65,0.00,,,0.00,meteohub,2013-06-01 00:48:00,
2013-05-31 20:53:00,64.8,52.7,30.24,SSE,158,4.0,9.0,65,0.00,,,0.00,meteohub,2013-06-01 00:53:00,
2013-05-31 20:58:00,64.6,52.5,30.24,SE,135,4.0,9.0,65,0.00,,,0.00,meteohub,2013-06-01 00:58:00,
2013-05-31 21:03:00,64.4,52.9,30.25,ESE,112,6.0,7.0,66,0.00,,,0.00,meteohub,2013-06-01 01:03:00,
2013-05-31 21:08:00,64.2,52.7,30.25,SSE,158,6.0,7.0,66,0.00,,,0.00,meteohub,2013-06-01 01:08:00,
2013-05-31 21:13:00,64.0,52.9,30.25,SSE,158,6.0,7.0,67,0.00,,,0.00,meteohub,2013-06-01 01:13:00,
2013-05-31 21:18:00,63.9,53.1,30.25,SSE,158,6.0,7.0,68,0.00,,,0.00,meteohub,2013-06-01 01:18:00,
2013-05-31 21:23:00,63.7,53.2,30.25,SSE,158,4.0,8.0,69,0.00,,,0.00,meteohub,2013-06-01 01:23:00,
2013-05-31 21:28:00,63.7,53.2,30.25,SSE,158,4.0,8.0,69,0.00,,,0.00,meteohub,2013-06-01 01:28:00,
2013-05-31 21:33:00,63.5,53.6,30.25,ESE,112,6.0,8.0,70,0.00,,,0.00,meteohub,2013-06-01 01:33:00,
2013-05-31 21:38:00,63.5,53.6,30.25,SE,135,6.0,8.0,70,0.00,,,0.00,meteohub,2013-06-01 01:38:00,
2013-05-31 21:43:00,63.3,53.8,30.25,SSE,158,6.0,6.0,71,0.00,,,0.00,meteohub,2013-06-01 01:43:00,
2013-05-31 21:48:00,63.3,53.8,30.25,SSE,158,4.0,8.0,71,0.00,,,0.00,meteohub,2013-06-01 01:48:00,
2013-05-31 21:53:00,63.1,53.6,30.25,SSE,158,4.0,9.0,71,0.00,,,0.00,meteohub,2013-06-01 01:53:00,
2013-05-31 21:58:00,63.1,53.6,30.25,SSE,158,4.0,9.0,71,0.00,,,0.00,meteohub,2013-06-01 01:58:00,
2013-05-31 22:03:00,63.1,53.6,30.25,SSE,158,5.0,9.0,71,0.00,,,0.00,meteohub,2013-06-01 02:03:00,
2013-05-31 22:08:00,63.0,53.8,30.26,SSE,158,7.0,9.0,72,0.00,,,0.00,meteohub,2013-06-01 02:08:00,
2013-05-31 22:13:00,63.0,53.8,30.26,SSE,158,4.0,7.0,72,0.00,,,0.00,meteohub,2013-06-01 02:13:00,
2013-05-31 22:18:00,63.0,53.8,30.26,SSE,158,6.0,8.0,72,0.00,,,0.00,meteohub,2013-06-01 02:18:00,
2013-05-31 22:23:00,63.0,53.8,30.26,SSE,158,5.0,8.0,72,0.00,,,0.00,meteohub,2013-06-01 02:23:00,
2013-05-31 22:28:00,63.0,54.1,30.26,SSE,158,6.0,8.0,73,0.00,,,0.00,meteohub,2013-06-01 02:28:00,
2013-05-31 22:34:00,63.0,54.1,30.26,SSE,158,6.0,8.0,73,0.00,,,0.00,meteohub,2013-06-01 02:34:00,
2013-05-31 22:39:00,63.1,54.3,30.25,ESE,112,8.0,9.0,73,0.00,,,0.00,meteohub,2013-06-01 02:39:00,
2013-05-31 22:44:00,63.1,54.3,30.25,SSE,158,6.0,9.0,73,0.00,,,0.00,meteohub,2013-06-01 02:44:00,
2013-05-31 22:49:00,63.0,53.8,30.26,SE,135,6.0,9.0,72,0.00,,,0.00,meteohub,2013-06-01 02:49:00,
2013-05-31 22:54:00,63.1,54.3,30.25,SSE,158,6.0,9.0,73,0.00,,,0.00,meteohub,2013-06-01 02:54:00,
2013-05-31 22:59:00,63.1,54.3,30.25,ESE,112,6.0,9.0,73,0.00,,,0.00,meteohub,2013-06-01 02:59:00,
2013-05-31 23:04:00,63.1,54.0,30.25,SE,135,6.0,7.0,72,0.00,,,0.00,meteohub,2013-06-01 03:04:00,
2013-05-31 23:09:00,63.1,54.0,30.25,SE,135,6.0,8.0,72,0.00,,,0.00,meteohub,2013-06-01 03:09:00,
2013-05-31 23:14:00,63.1,54.0,30.25,SSE,158,5.0,10.0,72,0.00,,,0.00,meteohub,2013-06-01 03:14:00,
2013-05-31 23:19:00,63.1,54.0,30.25,SSE,158,6.0,10.0,72,0.00,,,0.00,meteohub,2013-06-01 03:19:00,
2013-05-31 23:24:00,63.1,54.0,30.25,SE,135,7.0,10.0,72,0.00,,,0.00,meteohub,2013-06-01 03:24:00,
2013-05-31 23:29:00,63.3,54.1,30.25,SSE,158,5.0,10.0,72,0.00,,,0.00,meteohub,2013-06-01 03:29:00,
2013-05-31 23:34:00,63.3,54.1,30.25,SSE,158,5.0,10.0,72,0.00,,,0.00,meteohub,2013-06-01 03:34:00,
2013-05-31 23:39:00,63.3,54.1,30.25,SSE,158,9.0,10.0,72,0.00,,,0.00,meteohub,2013-06-01 03:39:00,
2013-05-31 23:44:00,63.3,54.1,30.25,SSE,158,6.0,8.0,72,0.00,,,0.00,meteohub,2013-06-01 03:44:00,
2013-05-31 23:49:00,63.3,54.1,30.25,SE,135,6.0,9.0,72,0.00,,,0.00,meteohub,2013-06-01 03:49:00,
2013-05-31 23:54:00,63.3,54.1,30.25,SSE,158,7.0,9.0,72,0.00,,,0.00,meteohub,2013-06-01 03:54:00,
2013-05-31 23:59:00,63.3,54.1,30.25,SSE,158,5.0,9.0,72,0.00,,,0.00,meteohub,2013-06-01 03:59:00,